Estelline, South Dakota
Current Conditions -  °F | °C
As of 6:53 PM on Tuesday 21 Oct 2014 (Local Time) from KATY Reporting Station
Clear Clear  
Wind Chill: 66°   Ceiling: Unl
Heat Index: 66°   Visibility: 10mi
Dew Point: 43°   Wind: 15mph
Humidity: 43%   Direction: 150°SSE
Pressure: 29.93"   Gusts: NA
Location:  44.57°N, 96.9°W
Report Text: KATY 212353Z AUTO 15013KT 10SM CLR 19/06 A2993 RMK AO2 SLP136 T01890061 10233 20189 55001
Loading
Personal Weather Stations






























Interactive Weather Map
Tropical Storm Tracking
New forecast layout! Learn more

10-Day Weather Forecast

Advertisements
Track Severe Weather on mobile